createdAt,value
2019-05-03T00:00:02.801Z,9.89
2019-05-03T00:02:42.769Z,10.05
2019-05-03T00:05:13.810Z,10.08
2019-05-03T00:07:43.096Z,10.20
2019-05-03T00:10:13.039Z,10.08
2019-05-03T00:12:42.406Z,9.96
2019-05-03T00:15:28.727Z,10.11
2019-05-03T00:17:58.053Z,10.19
2019-05-03T00:20:27.565Z,10.08
2019-05-03T00:22:56.882Z,10.10
2019-05-03T00:25:27.010Z,10.30
2019-05-03T00:27:56.395Z,10.11
2019-05-03T00:30:25.915Z,10.19
2019-05-03T00:32:55.312Z,10.19
2019-05-03T00:35:35.122Z,10.08
2019-05-03T00:38:06.200Z,9.99
2019-05-03T00:40:35.601Z,10.15
2019-05-03T00:43:04.979Z,10.16
2019-05-03T00:45:34.303Z,10.12
2019-05-03T00:48:03.670Z,10.17
2019-05-03T00:50:32.979Z,10.06
2019-05-03T00:53:02.508Z,10.14
2019-05-03T00:55:32.788Z,10.22
2019-05-03T00:58:02.602Z,10.16
2019-05-03T01:00:32.387Z,10.09
2019-05-03T01:03:02.201Z,10.11
2019-05-03T01:05:33.171Z,10.01
2019-05-03T01:08:02.589Z,10.08
2019-05-03T01:10:33.061Z,10.23
2019-05-03T01:13:02.497Z,10.08
2019-05-03T01:15:36.724Z,10.15
2019-05-03T01:18:07.765Z,9.95
2019-05-03T01:20:37.054Z,10.07
2019-05-03T01:23:06.536Z,10.14
2019-05-03T01:25:35.845Z,9.98
2019-05-03T01:28:05.338Z,9.88
2019-05-03T01:30:34.649Z,10.16
2019-05-03T01:33:03.984Z,10.11
2019-05-03T01:35:33.520Z,10.13
2019-05-03T01:38:02.843Z,9.95
2019-05-03T01:40:32.718Z,10.16
2019-05-03T01:43:02.361Z,10.28
2019-05-03T01:45:31.996Z,10.16
2019-05-03T01:48:09.345Z,10.21
2019-05-03T01:50:40.299Z,10.20
2019-05-03T01:53:12.543Z,10.07
2019-05-03T01:55:52.295Z,10.05
2019-05-03T01:58:22.921Z,10.13
2019-05-03T02:01:12.608Z,10.13
2019-05-03T02:03:43.812Z,10.14
2019-05-03T02:06:13.182Z,9.96
2019-05-03T02:08:42.736Z,9.89
2019-05-03T02:11:12.106Z,10.18
2019-05-03T02:13:42.745Z,10.08
2019-05-03T02:16:12.134Z,10.03
2019-05-03T02:18:42.429Z,9.97
2019-05-03T02:21:12.320Z,9.91
2019-05-03T02:23:42.723Z,9.89
2019-05-03T02:26:11.954Z,10.01
2019-05-03T02:28:42.141Z,9.99
2019-05-03T02:31:13.718Z,10.13
2019-05-03T02:33:43.393Z,10.13
2019-05-03T02:36:13.734Z,10.25
2019-05-03T02:38:43.622Z,10.12
2019-05-03T02:41:13.651Z,10.21
2019-05-03T02:43:59.521Z,10.20
2019-05-03T02:46:35.863Z,10.16
2019-05-03T02:49:15.403Z,10.20
2019-05-03T02:51:46.099Z,10.19
2019-05-03T02:54:15.906Z,10.31
2019-05-03T02:56:45.997Z,10.32
2019-05-03T02:59:16.066Z,10.23
2019-05-03T03:01:46.749Z,10.09
2019-05-03T03:04:17.136Z,10.04
2019-05-03T03:06:47.798Z,9.87
2019-05-03T03:09:19.322Z,9.90
2019-05-03T03:11:50.937Z,10.09
2019-05-03T03:14:22.068Z,10.17
2019-05-03T03:16:52.103Z,10.13
2019-05-03T03:19:26.020Z,10.11
2019-05-03T03:21:57.871Z,10.11
2019-05-03T03:24:29.833Z,10.18
2019-05-03T03:27:01.062Z,10.07
2019-05-03T03:29:31.682Z,9.97
2019-05-03T03:32:11.443Z,9.74
2019-05-03T03:35:03.221Z,10.01
2019-05-03T03:37:29.855Z,9.82
2019-05-03T03:39:59.468Z,9.93
2019-05-03T03:42:31.187Z,10.02
2019-05-03T03:45:02.073Z,10.03
2019-05-03T03:47:35.872Z,10.02
2019-05-03T03:50:06.163Z,9.96
2019-05-03T03:52:36.980Z,9.96
2019-05-03T03:55:07.612Z,9.90
2019-05-03T03:57:37.181Z,9.73
2019-05-03T04:00:08.024Z,9.90
2019-05-03T04:02:39.165Z,9.74
2019-05-03T04:05:09.735Z,9.89
2019-05-03T04:07:39.287Z,9.96
2019-05-03T04:10:09.895Z,9.64
2019-05-03T04:12:40.520Z,9.68
2019-05-03T04:15:28.744Z,9.76
2019-05-03T04:18:08.646Z,9.81
2019-05-03T04:20:38.883Z,9.81
2019-05-03T04:23:08.303Z,9.75
2019-05-03T04:25:37.878Z,9.61
2019-05-03T04:28:08.142Z,9.46
2019-05-03T04:30:37.461Z,9.55
2019-05-03T04:33:07.034Z,9.55
2019-05-03T04:35:36.819Z,9.45
2019-05-03T04:38:06.277Z,9.44
2019-05-03T04:40:36.072Z,9.37
2019-05-03T04:43:06.264Z,9.37
2019-05-03T04:45:36.792Z,9.57
2019-05-03T04:48:06.726Z,9.96
2019-05-03T04:50:36.934Z,10.31
2019-05-03T04:53:06.335Z,10.33
2019-05-03T04:55:36.467Z,10.19
2019-05-03T04:58:06.015Z,10.11
2019-05-03T05:00:36.048Z,9.90
2019-05-03T05:03:06.057Z,10.01
2019-05-03T05:05:36.340Z,9.98
2019-05-03T05:08:06.253Z,10.05
2019-05-03T05:10:36.231Z,10.07
2019-05-03T05:13:05.813Z,9.90
2019-05-03T05:15:35.492Z,9.89
2019-05-03T05:18:16.330Z,9.70
2019-05-03T05:20:56.016Z,9.72
2019-05-03T05:23:25.373Z,9.69
2019-05-03T05:26:11.633Z,9.72
2019-05-03T05:28:45.967Z,9.91
2019-05-03T05:31:15.445Z,9.93
2019-05-03T05:33:44.857Z,9.97
2019-05-03T05:36:15.297Z,9.87
2019-05-03T05:38:45.163Z,9.95
2019-05-03T05:41:15.604Z,10.00
2019-05-03T05:43:45.033Z,9.91
2019-05-03T05:46:15.002Z,9.83
2019-05-03T05:48:45.914Z,9.98
2019-05-03T05:51:16.128Z,10.14
2019-05-03T05:53:45.542Z,9.94
2019-05-03T05:56:16.606Z,10.04
2019-05-03T05:58:47.661Z,10.13
2019-05-03T06:01:25.030Z,10.37
2019-05-03T06:03:55.125Z,10.50
2019-05-03T06:06:29.038Z,10.39
2019-05-03T06:08:59.965Z,10.62
2019-05-03T06:11:36.701Z,10.32
2019-05-03T06:14:24.531Z,10.32
2019-05-03T06:16:58.607Z,10.31
2019-05-03T06:19:29.541Z,10.55
2019-05-03T06:22:12.726Z,10.41
2019-05-03T06:24:45.223Z,10.14
2019-05-03T06:27:24.317Z,9.87
2019-05-03T06:29:54.916Z,9.97
2019-05-03T06:32:25.884Z,9.69
2019-05-03T06:34:55.191Z,9.90
2019-05-03T06:37:26.131Z,9.98
2019-05-03T06:39:55.443Z,9.85
2019-05-03T06:42:25.466Z,9.78
2019-05-03T06:44:59.188Z,9.93
2019-05-03T06:47:28.547Z,10.14
2019-05-03T06:49:57.842Z,9.84
2019-05-03T06:52:29.319Z,9.61
2019-05-03T06:55:00.399Z,9.48
2019-05-03T06:57:29.428Z,9.44
2019-05-03T07:00:16.239Z,9.43
2019-05-03T07:02:47.205Z,9.44
2019-05-03T07:05:21.129Z,9.81
2019-05-03T07:07:57.835Z,9.81
2019-05-03T07:10:38.059Z,10.33
2019-05-03T07:13:09.035Z,10.33
2019-05-03T07:15:38.321Z,10.70
2019-05-03T07:18:07.640Z,10.93
2019-05-03T07:20:50.597Z,11.21
2019-05-03T07:23:19.902Z,11.39
2019-05-03T07:25:49.173Z,10.89
2019-05-03T07:28:18.595Z,11.31
2019-05-03T07:30:47.877Z,11.32
2019-05-03T07:33:25.467Z,11.20
2019-05-03T07:35:55.207Z,11.09
2019-05-03T07:38:24.924Z,11.07
2019-05-03T07:40:55.020Z,11.33
2019-05-03T07:43:24.679Z,11.24
2019-05-03T07:45:55.273Z,11.62
2019-05-03T07:48:25.599Z,11.27
2019-05-03T07:50:55.039Z,11.66
2019-05-03T07:53:25.300Z,11.40
2019-05-03T07:56:05.373Z,11.51
2019-05-03T07:58:37.022Z,11.43
2019-05-03T08:01:25.174Z,11.82
2019-05-03T08:03:55.141Z,11.90
2019-05-03T08:06:24.895Z,11.69
2019-05-03T08:08:54.598Z,11.77
2019-05-03T08:11:24.891Z,11.29
2019-05-03T08:13:54.967Z,11.21
2019-05-03T08:16:25.259Z,11.21
2019-05-03T08:18:55.873Z,11.11
2019-05-03T08:21:25.485Z,11.45
2019-05-03T08:23:55.727Z,11.30
2019-05-03T08:26:25.897Z,11.10
2019-05-03T08:28:55.414Z,11.47
2019-05-03T08:31:26.641Z,11.64
2019-05-03T08:34:00.832Z,11.64
2019-05-03T08:36:31.770Z,11.43
2019-05-03T08:39:01.697Z,11.41
2019-05-03T08:41:32.752Z,11.51
2019-05-03T08:44:02.437Z,11.27
2019-05-03T08:46:32.018Z,11.44
2019-05-03T08:49:02.051Z,11.63
2019-05-03T08:51:31.365Z,11.92
2019-05-03T08:54:00.651Z,12.04
2019-05-03T08:56:30.237Z,11.97
2019-05-03T08:58:59.526Z,11.33
2019-05-03T09:01:28.902Z,11.87
2019-05-03T09:03:58.186Z,12.06
2019-05-03T09:06:27.487Z,11.89
2019-05-03T09:08:57.363Z,11.99
2019-05-03T09:11:34.007Z,11.51
2019-05-03T09:14:04.446Z,11.70
2019-05-03T09:16:35.447Z,11.69
2019-05-03T09:19:05.617Z,11.23
2019-05-03T09:21:35.486Z,11.78
2019-05-03T09:24:05.208Z,11.66
2019-05-03T09:26:35.152Z,11.48
2019-05-03T09:29:05.772Z,11.72
2019-05-03T09:31:35.365Z,12.17
2019-05-03T09:34:08.310Z,12.42
2019-05-03T09:36:37.384Z,11.94
2019-05-03T09:39:08.436Z,11.72
2019-05-03T09:41:37.819Z,12.35
2019-05-03T09:44:07.359Z,12.62
2019-05-03T09:46:36.657Z,13.29
2019-05-03T09:49:13.368Z,13.29
2019-05-03T09:51:37.148Z,13.17
2019-05-03T09:54:10.894Z,13.05
2019-05-03T09:57:00.164Z,12.57
2019-05-03T09:59:30.383Z,12.56
2019-05-03T10:02:01.130Z,12.62
2019-05-03T10:04:30.507Z,12.46
2019-05-03T10:06:59.832Z,12.33
2019-05-03T10:09:29.111Z,12.87
2019-05-03T10:11:58.975Z,13.58
2019-05-03T10:14:28.245Z,14.20
2019-05-03T10:17:05.548Z,14.94
2019-05-03T10:19:40.118Z,16.18
2019-05-03T10:22:06.255Z,16.39
2019-05-03T10:24:36.076Z,16.32
2019-05-03T10:27:05.714Z,16.52
2019-05-03T10:29:35.325Z,16.24
2019-05-03T10:32:21.546Z,15.73
2019-05-03T10:34:55.460Z,15.16
2019-05-03T10:37:29.611Z,14.07
2019-05-03T10:40:01.349Z,13.98
2019-05-03T10:42:31.263Z,14.51
2019-05-03T10:45:00.959Z,15.19
2019-05-03T10:47:30.296Z,15.47
2019-05-03T10:49:59.763Z,15.00
2019-05-03T10:52:30.682Z,15.62
2019-05-03T10:54:59.997Z,15.50
2019-05-03T10:57:30.916Z,15.41
2019-05-03T11:00:00.238Z,14.67
2019-05-03T11:02:35.117Z,14.46
2019-05-03T11:05:07.091Z,13.73
2019-05-03T11:07:36.394Z,13.49
2019-05-03T11:10:07.550Z,13.22
2019-05-03T11:12:36.836Z,13.06
2019-05-03T11:15:08.532Z,13.09
2019-05-03T11:17:37.848Z,13.09
2019-05-03T11:20:07.800Z,13.40
2019-05-03T11:22:37.126Z,13.44
2019-05-03T11:25:07.264Z,13.86
2019-05-03T11:27:38.197Z,14.35
2019-05-03T11:30:09.596Z,14.20
2019-05-03T11:32:55.734Z,14.13
2019-05-03T11:35:29.747Z,14.77
2019-05-03T11:38:00.716Z,14.82
2019-05-03T11:40:30.140Z,14.20
2019-05-03T11:43:01.252Z,14.96
2019-05-03T11:45:30.648Z,14.77
2019-05-03T11:48:00.699Z,14.48
2019-05-03T11:50:30.005Z,13.72
2019-05-03T11:52:59.292Z,13.66
2019-05-03T11:55:28.933Z,13.36
2019-05-03T11:57:58.236Z,13.10
2019-05-03T12:00:29.253Z,12.67
2019-05-03T12:03:00.211Z,12.78
2019-05-03T12:05:31.340Z,12.81
2019-05-03T12:08:00.699Z,12.69
2019-05-03T12:10:46.262Z,13.67
2019-05-03T12:13:05.653Z,14.53
2019-05-03T12:15:35.422Z,15.12
2019-05-03T12:18:07.781Z,14.73
2019-05-03T12:20:39.314Z,14.78
2019-05-03T12:23:09.674Z,13.82
2019-05-03T12:25:40.699Z,14.26
2019-05-03T12:28:10.718Z,14.24
2019-05-03T12:30:40.370Z,14.28
2019-05-03T12:33:09.875Z,14.32
2019-05-03T12:35:39.420Z,14.53
2019-05-03T12:38:08.743Z,15.00
2019-05-03T12:40:38.260Z,14.73
2019-05-03T12:43:07.745Z,14.77
2019-05-03T12:45:37.288Z,14.84
2019-05-03T12:48:06.888Z,15.28
2019-05-03T12:50:36.585Z,15.54
2019-05-03T12:53:06.225Z,15.73
2019-05-03T12:55:35.840Z,15.43
2019-05-03T12:58:06.293Z,15.62
2019-05-03T13:00:52.646Z,15.42
2019-05-03T13:03:26.362Z,15.06
2019-05-03T13:05:55.722Z,14.58
2019-05-03T13:08:35.978Z,14.14
2019-05-03T13:11:06.509Z,13.90
2019-05-03T13:13:36.244Z,14.30
2019-05-03T13:16:07.021Z,14.75
2019-05-03T13:18:36.332Z,15.17
2019-05-03T13:21:06.360Z,14.94
2019-05-03T13:23:35.936Z,14.51
2019-05-03T13:26:06.149Z,15.25
2019-05-03T13:28:35.974Z,15.22
2019-05-03T13:31:06.179Z,15.72
2019-05-03T13:33:35.816Z,15.41
2019-05-03T13:36:06.061Z,15.21
2019-05-03T13:38:35.410Z,15.23
2019-05-03T13:41:06.562Z,14.57
2019-05-03T13:43:36.101Z,14.05
2019-05-03T13:46:05.686Z,14.07
2019-05-03T13:48:42.560Z,14.45
2019-05-03T13:51:06.064Z,14.59
2019-05-03T13:53:35.566Z,15.00
2019-05-03T13:56:05.308Z,15.19
2019-05-03T13:58:35.910Z,15.08
2019-05-03T14:01:05.894Z,15.12
2019-05-03T14:03:36.008Z,14.70
2019-05-03T14:06:08.704Z,14.35
2019-05-03T14:08:36.462Z,14.45
2019-05-03T14:11:05.855Z,14.45
2019-05-03T14:13:35.721Z,14.12
2019-05-03T14:16:06.158Z,14.12
2019-05-03T14:18:36.017Z,14.50
2019-05-03T14:21:10.018Z,14.67
2019-05-03T14:23:57.223Z,14.56
2019-05-03T14:26:26.540Z,14.48
2019-05-03T14:28:55.895Z,14.40
2019-05-03T14:31:25.383Z,14.10
2019-05-03T14:33:55.829Z,14.20
2019-05-03T14:36:25.514Z,14.03
2019-05-03T14:38:55.108Z,14.48
2019-05-03T14:41:25.577Z,13.62
2019-05-03T14:43:55.805Z,13.97
2019-05-03T14:46:32.617Z,13.93
2019-05-03T14:48:56.487Z,14.14
2019-05-03T14:51:25.798Z,14.01
2019-05-03T14:53:57.018Z,14.01
2019-05-03T14:56:28.474Z,13.84
2019-05-03T14:59:15.584Z,13.95
2019-05-03T15:01:46.553Z,13.54
2019-05-03T15:04:15.839Z,13.21
2019-05-03T15:06:46.068Z,13.40
2019-05-03T15:09:18.605Z,13.51
2019-05-03T15:11:46.778Z,13.32
2019-05-03T15:14:16.092Z,13.41
2019-05-03T15:16:45.404Z,13.74
2019-05-03T15:19:14.898Z,13.59
2019-05-03T15:21:45.266Z,13.33
2019-05-03T15:24:14.733Z,13.34
2019-05-03T15:26:44.760Z,13.03
2019-05-03T15:29:15.593Z,13.40
2019-05-03T15:31:45.086Z,13.37
2019-05-03T15:34:15.225Z,13.26
2019-05-03T15:36:45.140Z,12.95
2019-05-03T15:39:15.447Z,12.81
2019-05-03T15:41:45.046Z,12.63
2019-05-03T15:44:18.851Z,12.72
2019-05-03T15:46:49.936Z,12.88
2019-05-03T15:49:19.234Z,12.76
2019-05-03T15:51:48.510Z,12.85
2019-05-03T15:54:17.888Z,12.75
2019-05-03T15:56:47.372Z,12.58
2019-05-03T15:59:16.843Z,12.31
2019-05-03T16:01:46.324Z,12.16
2019-05-03T16:04:15.644Z,12.36
2019-05-03T16:06:45.022Z,12.23
2019-05-03T16:09:15.400Z,12.38
2019-05-03T16:11:45.200Z,12.31
2019-05-03T16:14:15.324Z,12.11
2019-05-03T16:16:45.182Z,11.93
2019-05-03T16:19:14.781Z,11.80
2019-05-03T16:21:45.237Z,11.82
2019-05-03T16:24:15.446Z,11.56
2019-05-03T16:26:47.028Z,11.57
2019-05-03T16:29:16.597Z,11.38
2019-05-03T16:31:46.795Z,11.40
2019-05-03T16:34:16.119Z,11.30
2019-05-03T16:36:45.584Z,11.31
2019-05-03T16:39:15.440Z,10.97
2019-05-03T16:41:45.052Z,11.51
2019-05-03T16:44:14.644Z,11.13
2019-05-03T16:46:45.621Z,11.08
2019-05-03T16:49:15.703Z,10.84
2019-05-03T16:51:45.293Z,10.72
2019-05-03T16:54:16.408Z,10.70
2019-05-03T16:56:45.983Z,10.69
2019-05-03T16:59:17.490Z,10.74
2019-05-03T17:01:46.534Z,10.84
2019-05-03T17:04:25.079Z,10.63
2019-05-03T17:07:02.489Z,10.57
2019-05-03T17:09:45.468Z,10.53
2019-05-03T17:12:16.584Z,10.47
2019-05-03T17:14:46.488Z,10.42
2019-05-03T17:17:15.818Z,10.43
2019-05-03T17:19:45.944Z,10.44
2019-05-03T17:22:17.447Z,10.31
2019-05-03T17:24:46.581Z,10.49
2019-05-03T17:27:15.978Z,10.35
2019-05-03T17:29:46.523Z,10.35
2019-05-03T17:32:15.929Z,10.41
2019-05-03T17:34:45.436Z,10.43
2019-05-03T17:37:14.928Z,10.44
2019-05-03T17:39:48.822Z,10.27
2019-05-03T17:42:35.751Z,10.74
2019-05-03T17:45:06.372Z,10.71
2019-05-03T17:47:35.720Z,10.76
2019-05-03T17:50:07.308Z,10.64
2019-05-03T17:52:41.059Z,10.61
2019-05-03T17:55:12.464Z,10.78
2019-05-03T17:57:46.168Z,10.92
2019-05-03T18:00:20.476Z,10.89
2019-05-03T18:02:50.912Z,10.79
2019-05-03T18:05:37.771Z,10.51
2019-05-03T18:08:24.994Z,10.16
2019-05-03T18:10:56.381Z,10.35
2019-05-03T18:13:25.852Z,10.24
2019-05-03T18:15:55.206Z,10.47
2019-05-03T18:18:25.263Z,10.42
2019-05-03T18:20:55.495Z,10.28
2019-05-03T18:23:25.083Z,10.37
2019-05-03T18:25:54.835Z,10.39
2019-05-03T18:28:24.969Z,9.96
2019-05-03T18:30:54.832Z,10.27
2019-05-03T18:33:24.723Z,10.46
2019-05-03T18:35:55.033Z,10.30
2019-05-03T18:38:25.393Z,10.29
2019-05-03T18:40:55.384Z,10.29
2019-05-03T18:43:35.503Z,10.45
2019-05-03T18:46:23.059Z,10.52
2019-05-03T18:48:52.711Z,10.55
2019-05-03T18:51:22.268Z,10.33
2019-05-03T18:53:51.586Z,10.30
2019-05-03T18:56:20.988Z,10.41
2019-05-03T18:58:50.312Z,10.26
2019-05-03T19:01:19.797Z,10.25
2019-05-03T19:03:50.856Z,10.31
2019-05-03T19:06:20.151Z,10.40
2019-05-03T19:08:59.947Z,10.42
2019-05-03T19:11:31.004Z,10.40
2019-05-03T19:14:01.907Z,10.26
2019-05-03T19:16:38.855Z,10.16
2019-05-03T19:19:09.611Z,10.40
2019-05-03T19:21:39.384Z,10.33
2019-05-03T19:24:10.099Z,10.11
2019-05-03T19:26:39.812Z,10.00
2019-05-03T19:29:09.334Z,9.85
2019-05-03T19:31:39.580Z,9.85
2019-05-03T19:34:09.198Z,9.95
2019-05-03T19:36:38.533Z,9.78
2019-05-03T19:39:08.313Z,9.76
2019-05-03T19:41:38.057Z,9.92
2019-05-03T19:44:07.479Z,9.59
2019-05-03T19:46:37.229Z,9.59
2019-05-03T19:49:06.525Z,9.64
2019-05-03T19:51:36.540Z,9.60
2019-05-03T19:54:06.082Z,9.60
2019-05-03T19:56:35.492Z,9.72
2019-05-03T19:59:06.517Z,9.77
2019-05-03T20:01:40.676Z,9.77
2019-05-03T20:04:27.432Z,9.72
2019-05-03T20:06:58.396Z,9.72
2019-05-03T20:09:28.635Z,9.88
2019-05-03T20:11:58.347Z,9.71
2019-05-03T20:14:27.847Z,9.78
2019-05-03T20:16:57.269Z,9.78
2019-05-03T20:19:26.564Z,9.79
2019-05-03T20:21:56.646Z,9.80
2019-05-03T20:24:26.570Z,9.74
2019-05-03T20:26:56.572Z,9.50
2019-05-03T20:29:25.865Z,9.50
2019-05-03T20:31:55.387Z,9.45
2019-05-03T20:34:25.015Z,9.44
2019-05-03T20:36:54.928Z,9.64
2019-05-03T20:39:25.393Z,9.71
2019-05-03T20:41:55.241Z,9.37
2019-05-03T20:44:32.457Z,9.39
2019-05-03T20:47:04.413Z,9.39
2019-05-03T20:49:34.703Z,9.32
2019-05-03T20:52:04.830Z,9.43
2019-05-03T20:54:35.020Z,9.55
2019-05-03T20:57:05.499Z,9.55
2019-05-03T20:59:45.874Z,9.52
2019-05-03T21:02:08.964Z,9.45
2019-05-03T21:04:38.411Z,9.50
2019-05-03T21:07:08.450Z,9.40
2019-05-03T21:09:37.814Z,9.40
2019-05-03T21:12:07.427Z,9.70
2019-05-03T21:14:36.746Z,9.49
2019-05-03T21:17:10.783Z,9.49
2019-05-03T21:19:57.889Z,9.66
2019-05-03T21:22:28.462Z,9.46
2019-05-03T21:25:02.382Z,9.69
2019-05-03T21:27:31.760Z,9.69
2019-05-03T21:30:01.234Z,9.76
2019-05-03T21:32:30.638Z,9.58
2019-05-03T21:35:00.044Z,9.55
2019-05-03T21:37:29.409Z,9.55
2019-05-03T21:39:58.838Z,9.72
2019-05-03T21:42:28.136Z,9.64
2019-05-03T21:44:57.864Z,9.53
2019-05-03T21:47:40.862Z,9.60
2019-05-03T21:50:14.255Z,9.60
2019-05-03T21:52:43.495Z,9.75
2019-05-03T21:55:14.445Z,9.81
2019-05-03T21:57:44.991Z,9.70
2019-05-03T22:00:16.418Z,9.65
2019-05-03T22:02:45.781Z,9.82
2019-05-03T22:05:16.559Z,9.60
2019-05-03T22:07:45.909Z,9.44
2019-05-03T22:10:16.345Z,9.50
2019-05-03T22:12:45.641Z,9.31
2019-05-03T22:15:34.686Z,9.26
2019-05-03T22:18:11.750Z,9.24
2019-05-03T22:20:43.029Z,9.24
2019-05-03T22:23:19.717Z,9.45
2019-05-03T22:25:49.185Z,9.54
2019-05-03T22:28:18.810Z,9.54
2019-05-03T22:30:48.120Z,9.80
2019-05-03T22:33:17.558Z,9.80
2019-05-03T22:35:47.014Z,9.85
2019-05-03T22:38:16.729Z,9.74
2019-05-03T22:40:46.852Z,9.65
2019-05-03T22:43:16.628Z,9.85
2019-05-03T22:45:45.976Z,9.79
2019-05-03T22:48:16.056Z,9.79
2019-05-03T22:50:45.477Z,9.78
2019-05-03T22:53:14.873Z,9.78
2019-05-03T22:55:45.129Z,9.83
2019-05-03T22:58:15.405Z,9.50
2019-05-03T23:00:44.871Z,9.50
2019-05-03T23:03:14.679Z,9.73
2019-05-03T23:05:45.590Z,9.49
2019-05-03T23:08:15.154Z,9.49
2019-05-03T23:10:45.115Z,9.43
2019-05-03T23:13:15.428Z,9.48
2019-05-03T23:15:44.900Z,9.52
2019-05-03T23:18:14.348Z,9.13
2019-05-03T23:20:55.250Z,9.38
2019-05-03T23:23:42.545Z,9.13
2019-05-03T23:26:11.834Z,9.09
2019-05-03T23:28:41.146Z,8.91
2019-05-03T23:31:10.482Z,8.86
2019-05-03T23:33:39.921Z,9.10
2019-05-03T23:36:09.319Z,8.98
2019-05-03T23:38:39.088Z,9.37
2019-05-03T23:41:08.794Z,9.37
2019-05-03T23:43:38.115Z,9.40
2019-05-03T23:46:08.089Z,9.25
2019-05-03T23:48:37.646Z,9.32
2019-05-03T23:51:08.852Z,9.41
2019-05-03T23:53:38.300Z,9.42
2019-05-03T23:56:15.162Z,9.36
2019-05-03T23:58:44.655Z,9.57
